Warning: Javascript must be enabled to use all the features on this page!


Page Loading - Please Wait...

Click to hideNews Bulletins
  • Explore the NEW USGS National Water Dashboard interactive map to access real-time water data from over 13,500 stations nationwide.
  • Full News RSS icon
  • USGS has scheduled planned maintenance to our IT infrastructure, starting Tuesday, June 28, 2022, from 8:00-10:00am Eastern Daylight Time (EDT). During the maintenance period, there will be a short interruption in the availability of the most recent time-series data. Any backlog will be made available following conclusion of the scheduled maintenance.

Peak Streamflow for the Nation

USGS 07260673 West Fork Point Remove Creek near Hattieville, AR

Pope County, Arkansas
Hydrologic Unit Code 11110203
Latitude  35°19'29", Longitude  92°52'23" NAD83
Drainage area 222  square miles
Gage datum 280 feet above NAVD88
Output formats
Table
Graph
Tab-separated file
peakfq (watstore) format
Reselect output format
Water
Year
Date Gage
Height
(feet)
Stream-
flow
(cfs)
1979 1979-04-01 21.00 11,500
1980 1979-12-24 14.22 2,430
1981 1981-03-29 11.16 1,590
1982 1982-03-14 18.50 4,860
1983 1982-12-03 26.62 64,100
1984 1984-05-07 15.02 2,550
1985 1984-10-20 20.40 7,460
1986 1985-11-27 18.18 4,540
1987 1987-02-28 15.10 2,600
1988 1987-12-25 18.38 4,460
1989 1989-02-15 20.51 8,300
1990 1990-03-08 19.75 6,340
1991 1991-04-13 20.20 7,370
1992 1991-11-19 19.44 5,800
1993 1992-12-15 19.78 6,390
1994 1993-11-16 16.23 2,830
1995 1995-01-13 16.15 2,790
1996 1996-04-23 10.95 1,220
1997 1997-04-05 19.65 6,160
1998 1998-01-05 20.04 6,910
1999 1998-10-06 20.71 8,990
2000 1999-12-12 14.11 1,090
2001 2001-02-16 19.89 6,590
2002 2001-12-17 20.63 8,240
2003 2003-05-17 15.74 2,720
2004 2004-04-22 18.60 4,580
2005 2004-11-29 19.57 5,930
2006 2006-03-09 13.14 1,850
2007 2007-01-14 20.56 8,180
2008 2008-09-03 21.67 15,800
2009 2009-05-02 22.27 19,100
2010 2009-10-30 20.47 9,800
2011 2011-05-02 22.00 16,500
2012 2011-11-22 22.22 17,700
2013 2013-01-12 10.73 1,180
2014 2014-01-11 13.43 1,990
2015 2015-03-01 19.78 7,600
2016 2015-12-28 21.51 13,800
2017 2017-08-15 20.14 8,530
2018 2018-02-24 20.64 10,200
2019 2019-02-11 20.96 9,150
2020 2020-01-11 18.30 5,180
2021 2021-05-20 21.66 10,900